Cluj, România

09:51 PM EEST on august 28, 2016 (GMT +0300)
Someseni | | Change Station

Elev 1033 ft 46.78 °N, 23.68 °E | Updated 21 minutes ago

Smoke
Fum
68 °F
Feels Like 68 °F
N
4
Vânt variabil Vânt from SV

astăzi
High -- | Low -- °F
--% Chance of Precip.
Ieri
High -- | Low -- °F
Precip. -- inch
Presiunea 30.09 inch
Vizibilitatea 3.1 mile
Nori
Punctul de rouă 57 °F
Umiditatea 68%
Precipitaţii 0.00 inch
Adâncimea zăpezii Not available.
6:40 AM 8:11 PM
Semilună în descreştere, 14% visible
METAR LRCL 281830Z 23003KT 5000 FU NSC 20/14 Q1019
Presiunea 30.09 inch
Vizibilitatea 3.1 mile
Nori
Punctul de rouă 57 °F
Umiditatea 68%
Precipitaţii 0.00 inch
Adâncimea zăpezii Not available.
6:40 AM 8:11 PM
Semilună în descreştere, 14% visible
METAR LRCL 281830Z 23003KT 5000 FU NSC 20/14 Q1019

10-Day Weather Forecast

×

Almanac

Astronomie

Aug. 28, 2016 Răsărit Apus
Timpul Actual
Crepusculul Civil
Crepusculul nautic
Răsărit Astronomic
Luna
Durata zilei lumină
Lungimea zilei
Tomorrow will be .
, % of the Moon is Illuminated

Extremele de azi

Country Highs Country Lows

Community

WunderPhotos

Upload Photos

1,935,647 photos uploaded!

WunderBlog® & News

Nearby

Calitatea aerului

  Calitatea aerului Index de calitate a aerului Poluat
Not available.

Adâncimea zapezii

Station Depth Elevation

Earthquake Activity

Oraş Distance Mag. Time & Date
Minimum magnitude displayed is 2.5.

Coastal Water Temperatures

Locul Temperatura

Stations

Nearby Weather Stations

Locaţia staţiei Temp Vânt rece Punctul de rouă Umiditatea Vânt Precip. Elev Actualizare Type